createdAt,value
2018-06-10T00:01:14.682Z,98771.26
2018-06-10T00:03:49.112Z,98728.07
2018-06-10T00:06:23.444Z,98773.41
2018-06-10T00:08:57.933Z,98769.77
2018-06-10T00:11:32.536Z,98770.56
2018-06-10T00:14:07.155Z,98757.74
2018-06-10T00:16:41.669Z,98756.16
2018-06-10T00:19:16.184Z,98751.60
2018-06-10T00:21:50.652Z,98738.84
2018-06-10T00:24:25.107Z,98726.39
2018-06-10T00:29:58.858Z,98702.61
2018-06-10T00:32:33.288Z,98691.59
2018-06-10T00:35:07.668Z,98691.88
2018-06-10T00:37:42.060Z,98695.89
2018-06-10T00:40:16.449Z,98698.86
2018-06-10T00:42:50.992Z,98699.52
2018-06-10T00:45:25.421Z,98694.20
2018-06-10T00:48:00.078Z,98691.19
2018-06-10T00:50:34.418Z,98685.19
2018-06-10T00:53:08.917Z,98680.00
2018-06-10T00:55:43.521Z,98681.02
2018-06-10T00:58:18.021Z,98668.27
2018-06-10T01:00:52.562Z,98667.66
2018-06-10T01:03:27.012Z,98661.36
2018-06-10T01:06:01.456Z,98662.39
2018-06-10T01:08:36.049Z,98655.73
2018-06-10T01:11:10.563Z,98654.92
2018-06-10T01:13:45.084Z,98645.37
2018-06-10T01:16:19.481Z,98650.27
2018-06-10T01:18:53.897Z,98647.81
2018-06-10T01:21:28.392Z,98635.53
2018-06-10T01:24:02.945Z,98632.55
2018-06-10T01:26:54.001Z,98632.55
2018-06-10T01:29:28.698Z,98627.17
2018-06-10T01:32:03.116Z,98620.61
2018-06-10T01:34:37.454Z,98619.66
2018-06-10T01:37:11.890Z,98613.86
2018-06-10T01:39:46.228Z,98615.66
2018-06-10T01:42:20.668Z,98619.67
2018-06-10T01:44:55.321Z,98619.67
2018-06-10T01:47:30.093Z,98619.40
2018-06-10T01:50:04.848Z,98622.55
2018-06-10T01:52:39.424Z,98625.72
2018-06-10T01:55:13.755Z,98625.91
2018-06-10T01:57:48.185Z,98618.72
2018-06-10T02:00:22.742Z,98619.03
2018-06-10T02:02:57.564Z,98619.03
2018-06-10T02:05:31.957Z,98618.50
2018-06-10T02:08:06.464Z,98618.02
2018-06-10T02:10:41.076Z,98613.10
2018-06-10T02:13:15.790Z,98613.59
2018-06-10T02:15:50.292Z,98607.39
2018-06-10T02:18:24.723Z,98605.02
2018-06-10T02:20:59.070Z,98609.03
2018-06-10T02:23:33.600Z,98601.42
2018-06-10T02:26:08.217Z,98603.21
2018-06-10T02:28:42.664Z,98592.80
2018-06-10T02:31:17.021Z,98596.02
2018-06-10T02:33:51.441Z,98590.73
2018-06-10T02:36:26.120Z,98588.72
2018-06-10T02:39:00.723Z,98589.13
2018-06-10T02:41:35.209Z,98583.85
2018-06-10T02:44:09.648Z,98578.17
2018-06-10T02:46:44.028Z,98585.71
2018-06-10T02:49:18.433Z,98581.42
2018-06-10T02:51:52.881Z,98581.00
2018-06-10T02:54:27.260Z,98582.22
2018-06-10T02:57:01.868Z,98584.99
2018-06-10T02:59:36.291Z,98588.83
2018-06-10T03:02:10.693Z,98589.17
2018-06-10T03:04:45.148Z,98592.48
2018-06-10T03:07:19.766Z,98588.83
2018-06-10T03:09:54.253Z,98588.66
2018-06-10T03:12:28.634Z,98589.25
2018-06-10T03:15:03.187Z,98586.08
2018-06-10T03:17:37.677Z,98587.82
2018-06-10T03:20:11.984Z,98579.83
2018-06-10T03:22:46.383Z,98584.41
2018-06-10T03:25:20.852Z,98589.41
2018-06-10T03:27:55.446Z,98590.50
2018-06-10T03:30:29.913Z,98588.75
2018-06-10T03:33:04.301Z,98588.53
2018-06-10T03:35:38.897Z,98586.66
2018-06-10T03:38:13.639Z,98583.85
2018-06-10T03:40:48.292Z,98583.04
2018-06-10T03:43:23.152Z,98579.42
2018-06-10T03:45:57.673Z,98583.22
2018-06-10T03:48:32.292Z,98581.73
2018-06-10T03:51:06.701Z,98591.69
2018-06-10T03:53:41.072Z,98592.22
2018-06-10T03:56:15.533Z,98587.56
2018-06-10T03:58:50.453Z,98588.25
2018-06-10T04:01:25.017Z,98588.12
2018-06-10T04:03:59.508Z,98583.84
2018-06-10T04:06:34.019Z,98589.18
2018-06-10T04:09:08.440Z,98584.47
2018-06-10T04:11:42.867Z,98587.85
2018-06-10T04:14:17.396Z,98582.72
2018-06-10T04:16:51.762Z,98577.34
2018-06-10T04:19:26.318Z,98573.14
2018-06-10T04:22:00.615Z,98580.98
2018-06-10T04:24:35.436Z,98575.73
2018-06-10T04:27:10.316Z,98581.73
2018-06-10T04:29:44.817Z,98584.70
2018-06-10T04:32:19.283Z,98590.41
2018-06-10T04:34:53.939Z,98588.16
2018-06-10T04:37:28.649Z,98595.25
2018-06-10T04:40:03.176Z,98597.67
2018-06-10T04:42:37.572Z,98601.43
2018-06-10T04:45:12.243Z,98602.97
2018-06-10T04:47:46.872Z,98609.48
2018-06-10T04:50:21.462Z,98613.31
2018-06-10T04:52:55.919Z,98622.95
2018-06-10T04:55:30.251Z,98630.15
2018-06-10T04:58:04.755Z,98627.58
2018-06-10T05:00:39.283Z,98628.33
2018-06-10T05:03:13.672Z,98632.13
2018-06-10T05:05:48.233Z,98629.51
2018-06-10T05:08:22.804Z,98629.84
2018-06-10T05:10:57.281Z,98629.88
2018-06-10T05:13:31.724Z,98633.97
2018-06-10T05:16:06.160Z,98630.80
2018-06-10T05:18:40.729Z,98627.88
2018-06-10T05:21:15.163Z,98640.48
2018-06-10T05:23:49.653Z,98637.22
2018-06-10T05:26:24.030Z,98646.73
2018-06-10T05:28:58.473Z,98648.58
2018-06-10T05:31:33.060Z,98648.77
2018-06-10T05:34:07.463Z,98645.31
2018-06-10T05:36:41.989Z,98644.73
2018-06-10T05:39:16.580Z,98636.50
2018-06-10T05:41:51.228Z,98636.14
2018-06-10T05:44:25.777Z,98637.73
2018-06-10T05:47:00.173Z,98643.28
2018-06-10T05:49:34.589Z,98632.38
2018-06-10T05:52:09.209Z,98634.23
2018-06-10T05:54:43.637Z,98643.80
2018-06-10T05:57:18.231Z,98645.84
2018-06-10T05:59:52.773Z,98650.39
2018-06-10T06:02:27.203Z,98650.98
2018-06-10T06:05:01.747Z,98645.00
2018-06-10T06:07:36.371Z,98650.58
2018-06-10T06:10:10.929Z,98656.30
2018-06-10T06:12:45.340Z,98656.36
2018-06-10T06:15:19.798Z,98657.56
2018-06-10T06:17:54.232Z,98658.19
2018-06-10T06:20:28.634Z,98662.14
2018-06-10T06:23:03.241Z,98659.40
2018-06-10T06:25:37.616Z,98661.95
2018-06-10T06:28:12.230Z,98659.37
2018-06-10T06:30:46.920Z,98658.98
2018-06-10T06:33:21.462Z,98665.39
2018-06-10T06:35:55.944Z,98672.96
2018-06-10T06:38:30.521Z,98672.66
2018-06-10T06:41:05.057Z,98668.29
2018-06-10T06:43:39.817Z,98670.94
2018-06-10T06:46:14.431Z,98668.45
2018-06-10T06:48:48.985Z,98669.13
2018-06-10T06:51:23.788Z,98668.23
2018-06-10T06:53:58.395Z,98665.62
2018-06-10T06:56:33.341Z,98666.20
2018-06-10T06:59:07.980Z,98665.41
2018-06-10T07:01:42.425Z,98673.41
2018-06-10T07:04:16.901Z,98669.84
2018-06-10T07:06:51.345Z,98674.20
2018-06-10T07:09:25.798Z,98669.13
2018-06-10T07:12:00.833Z,98672.99
2018-06-10T07:14:35.517Z,98672.00
2018-06-10T07:17:10.141Z,98671.69
2018-06-10T07:19:44.701Z,98668.70
2018-06-10T07:22:19.087Z,98672.05
2018-06-10T07:24:53.474Z,98670.39
2018-06-10T07:27:28.164Z,98666.55
2018-06-10T07:30:02.772Z,98671.64
2018-06-10T07:32:37.329Z,98662.03
2018-06-10T07:35:12.090Z,98662.61
2018-06-10T07:37:46.830Z,98670.73
2018-06-10T07:40:21.373Z,98668.96
2018-06-10T07:42:55.809Z,98666.09
2018-06-10T07:45:30.229Z,98667.90
2018-06-10T07:48:04.841Z,98667.45
2018-06-10T07:50:39.397Z,98660.86
2018-06-10T07:53:13.956Z,98669.55
2018-06-10T07:55:48.549Z,98674.22
2018-06-10T07:58:23.303Z,98676.13
2018-06-10T08:00:57.972Z,98675.58
2018-06-10T08:03:32.562Z,98676.66
2018-06-10T08:06:07.202Z,98680.69
2018-06-10T08:08:41.955Z,98679.45
2018-06-10T08:11:16.444Z,98686.26
2018-06-10T08:13:50.928Z,98688.91
2018-06-10T08:16:25.319Z,98688.97
2018-06-10T08:18:59.673Z,98688.70
2018-06-10T08:21:34.049Z,98681.27
2018-06-10T08:24:08.784Z,98669.06
2018-06-10T08:26:43.213Z,98676.20
2018-06-10T08:29:17.756Z,98674.19
2018-06-10T08:31:52.400Z,98670.16
2018-06-10T08:34:26.926Z,98669.06
2018-06-10T08:37:01.755Z,98668.03
2018-06-10T08:39:36.361Z,98666.88
2018-06-10T08:42:10.907Z,98666.38
2018-06-10T08:44:45.240Z,98666.76
2018-06-10T08:47:20.297Z,98668.55
2018-06-10T08:49:55.157Z,98668.25
2018-06-10T08:52:29.582Z,98667.20
2018-06-10T08:55:03.986Z,98669.74
2018-06-10T08:57:38.541Z,98669.44
2018-06-10T09:00:13.038Z,98670.36
2018-06-10T09:02:47.476Z,98671.62
2018-06-10T09:05:21.865Z,98679.31
2018-06-10T09:07:56.380Z,98676.15
2018-06-10T09:10:30.995Z,98675.19
2018-06-10T09:13:05.517Z,98682.97
2018-06-10T09:15:40.487Z,98688.55
2018-06-10T09:18:15.047Z,98685.35
2018-06-10T09:20:49.400Z,98685.19
2018-06-10T09:23:23.781Z,98686.03
2018-06-10T09:25:58.361Z,98687.22
2018-06-10T09:28:32.871Z,98687.42
2018-06-10T09:31:07.286Z,98688.61
2018-06-10T09:33:41.912Z,98686.62
2018-06-10T09:36:16.471Z,98686.23
2018-06-10T09:38:51.116Z,98683.23
2018-06-10T09:41:25.797Z,98679.58
2018-06-10T09:44:00.364Z,98675.55
2018-06-10T09:46:34.952Z,98677.16
2018-06-10T09:49:09.504Z,98673.50
2018-06-10T09:51:44.587Z,98673.34
2018-06-10T09:54:19.275Z,98673.59
2018-06-10T09:56:53.853Z,98672.25
2018-06-10T09:59:28.290Z,98668.50
2018-06-10T10:02:03.009Z,98677.59
2018-06-10T10:04:37.573Z,98680.78
2018-06-10T10:07:11.904Z,98676.63
2018-06-10T10:09:46.410Z,98675.61
2018-06-10T10:12:20.913Z,98687.70
2018-06-10T10:14:55.428Z,98687.17
2018-06-10T10:17:29.860Z,98688.09
2018-06-10T10:20:04.411Z,98689.34
2018-06-10T10:22:38.963Z,98689.75
2018-06-10T10:25:13.390Z,98684.42
2018-06-10T10:27:47.928Z,98686.36
2018-06-10T10:30:22.529Z,98682.05
2018-06-10T10:32:57.080Z,98682.44
2018-06-10T10:35:31.885Z,98680.74
2018-06-10T10:38:06.613Z,98683.65
2018-06-10T10:40:40.955Z,98681.32
2018-06-10T10:43:15.406Z,98680.75
2018-06-10T10:45:50.149Z,98679.30
2018-06-10T10:48:24.736Z,98679.27
2018-06-10T10:50:59.314Z,98683.34
2018-06-10T10:53:33.890Z,98686.21
2018-06-10T10:56:08.469Z,98684.55
2018-06-10T10:58:43.121Z,98684.33
2018-06-10T11:01:17.642Z,98692.48
2018-06-10T11:03:52.063Z,98687.22
2018-06-10T11:06:26.561Z,98687.33
2018-06-10T11:09:01.119Z,98683.37
2018-06-10T11:11:35.629Z,98682.20
2018-06-10T11:14:10.046Z,98682.44
2018-06-10T11:16:44.521Z,98685.05
2018-06-10T11:19:19.059Z,98682.92
2018-06-10T11:21:53.905Z,98679.59
2018-06-10T11:24:28.344Z,98680.39
2018-06-10T11:27:03.151Z,98689.52
2018-06-10T11:29:37.772Z,98678.65
2018-06-10T11:32:12.355Z,98687.55
2018-06-10T11:34:47.190Z,98685.38
2018-06-10T11:37:22.040Z,98678.29
2018-06-10T11:39:56.597Z,98684.42
2018-06-10T11:42:31.285Z,98689.55
2018-06-10T11:45:05.911Z,98690.57
2018-06-10T11:47:40.260Z,98682.29
2018-06-10T11:50:14.604Z,98686.05
2018-06-10T11:52:49.277Z,98683.41
2018-06-10T11:55:23.851Z,98682.08
2018-06-10T11:57:58.278Z,98680.67
2018-06-10T12:00:32.870Z,98676.45
2018-06-10T12:03:07.308Z,98676.52
2018-06-10T12:05:41.925Z,98679.06
2018-06-10T12:08:16.661Z,98670.52
2018-06-10T12:10:51.437Z,98672.70
2018-06-10T12:13:25.961Z,98671.75
2018-06-10T12:16:00.464Z,98677.83
2018-06-10T12:18:35.079Z,98685.14
2018-06-10T12:21:09.649Z,98681.33
2018-06-10T12:23:44.264Z,98674.02
2018-06-10T12:26:18.825Z,98669.73
2018-06-10T12:28:53.457Z,98675.60
2018-06-10T12:31:28.273Z,98674.45
2018-06-10T12:34:02.788Z,98673.28
2018-06-10T12:36:37.188Z,98671.06
2018-06-10T12:39:11.652Z,98666.15
2018-06-10T12:41:46.221Z,98656.70
2018-06-10T12:44:20.646Z,98662.72
2018-06-10T12:46:55.152Z,98655.67
2018-06-10T12:49:29.733Z,98663.05
2018-06-10T12:52:04.416Z,98665.14
2018-06-10T12:54:39.028Z,98664.10
2018-06-10T12:57:13.527Z,98665.58
2018-06-10T12:59:47.978Z,98655.97
2018-06-10T13:02:22.451Z,98657.31
2018-06-10T13:04:57.087Z,98661.44
2018-06-10T13:07:31.658Z,98662.89
2018-06-10T13:10:06.101Z,98657.12
2018-06-10T13:12:40.642Z,98660.53
2018-06-10T13:15:15.153Z,98654.64
2018-06-10T13:17:49.781Z,98653.38
2018-06-10T13:20:24.485Z,98652.78
2018-06-10T13:22:59.205Z,98650.13
2018-06-10T13:25:33.697Z,98646.77
2018-06-10T13:28:08.312Z,98660.46
2018-06-10T13:30:42.862Z,98651.24
2018-06-10T13:33:17.472Z,98654.38
2018-06-10T13:35:52.024Z,98654.56
2018-06-10T13:38:26.553Z,98659.17
2018-06-10T13:41:01.157Z,98656.79
2018-06-10T13:43:35.978Z,98654.27
2018-06-10T13:46:10.549Z,98650.77
2018-06-10T13:48:45.193Z,98646.30
2018-06-10T13:51:19.839Z,98650.97
2018-06-10T13:53:54.263Z,98644.48
2018-06-10T13:56:28.845Z,98645.27
2018-06-10T13:59:03.492Z,98647.61
2018-06-10T14:01:38.023Z,98643.20
2018-06-10T14:04:12.467Z,98637.30
2018-06-10T14:06:47.383Z,98643.65
2018-06-10T14:09:22.097Z,98631.47
2018-06-10T14:11:56.790Z,98642.98
2018-06-10T14:14:32.486Z,98644.41
2018-06-10T14:17:14.454Z,98644.59
2018-06-10T14:19:48.987Z,98639.23
2018-06-10T14:22:23.489Z,98644.92
2018-06-10T14:24:58.245Z,98640.75
2018-06-10T14:27:32.782Z,98635.34
2018-06-10T14:30:08.084Z,98631.16
2018-06-10T14:32:42.633Z,98632.03
2018-06-10T14:35:17.330Z,98629.41
2018-06-10T14:37:52.048Z,98622.45
2018-06-10T14:40:26.760Z,98622.36
2018-06-10T14:43:01.605Z,98619.14
2018-06-10T14:45:36.209Z,98612.58
2018-06-10T14:48:10.705Z,98611.91
2018-06-10T14:50:45.301Z,98615.16
2018-06-10T14:53:19.721Z,98613.73
2018-06-10T14:55:54.405Z,98618.12
2018-06-10T14:58:28.974Z,98611.75
2018-06-10T15:01:03.515Z,98615.05
2018-06-10T15:03:38.105Z,98617.25
2018-06-10T15:06:12.732Z,98618.05
2018-06-10T15:08:47.304Z,98620.64
2018-06-10T15:11:21.761Z,98622.84
2018-06-10T15:13:56.104Z,98612.66
2018-06-10T15:16:30.557Z,98615.77
2018-06-10T15:19:05.297Z,98616.29
2018-06-10T15:21:40.097Z,98612.40
2018-06-10T15:24:14.680Z,98612.16
2018-06-10T15:26:49.189Z,98616.03
2018-06-10T15:29:24.357Z,98614.55
2018-06-10T15:31:59.109Z,98615.44
2018-06-10T15:34:33.749Z,98614.91
2018-06-10T15:37:08.373Z,98610.52
2018-06-10T15:39:43.015Z,98604.05
2018-06-10T15:42:17.569Z,98605.20
2018-06-10T15:44:51.989Z,98615.39
2018-06-10T15:47:26.742Z,98605.36
2018-06-10T15:50:01.283Z,98609.35
2018-06-10T15:52:35.871Z,98597.77
2018-06-10T15:55:10.421Z,98591.16
2018-06-10T15:57:44.804Z,98595.44
2018-06-10T16:00:19.192Z,98606.09
2018-06-10T16:02:53.592Z,98596.38
2018-06-10T16:05:27.952Z,98598.54
2018-06-10T16:08:02.390Z,98600.20
2018-06-10T16:10:37.275Z,98603.94
2018-06-10T16:13:11.776Z,98604.78
2018-06-10T16:15:46.364Z,98590.77
2018-06-10T16:18:20.677Z,98597.78
2018-06-10T16:20:55.342Z,98587.82
2018-06-10T16:23:29.807Z,98587.66
2018-06-10T16:26:04.334Z,98581.84
2018-06-10T16:28:38.783Z,98571.24
2018-06-10T16:31:13.494Z,98572.97
2018-06-10T16:33:47.806Z,98566.38
2018-06-10T16:36:22.308Z,98563.36
2018-06-10T16:38:56.688Z,98565.77
2018-06-10T16:41:31.167Z,98577.21
2018-06-10T16:44:05.669Z,98585.14
2018-06-10T16:46:40.175Z,98581.30
2018-06-10T16:49:14.781Z,98588.23
2018-06-10T16:51:49.462Z,98595.20
2018-06-10T16:54:24.085Z,98596.67
2018-06-10T16:56:58.696Z,98590.84
2018-06-10T16:59:33.411Z,98592.27
2018-06-10T17:02:07.843Z,98588.00
2018-06-10T17:04:42.312Z,98593.16
2018-06-10T17:07:16.859Z,98596.16
2018-06-10T17:09:51.692Z,98606.13
2018-06-10T17:12:26.203Z,98607.38
2018-06-10T17:15:00.755Z,98604.00
2018-06-10T17:17:35.159Z,98610.68
2018-06-10T17:20:10.021Z,98600.77
2018-06-10T17:22:44.825Z,98604.48
2018-06-10T17:25:19.588Z,98610.12
2018-06-10T17:27:54.149Z,98614.95
2018-06-10T17:30:28.723Z,98617.97
2018-06-10T17:33:03.344Z,98616.69
2018-06-10T17:35:37.931Z,98612.96
2018-06-10T17:38:12.467Z,98621.42
2018-06-10T17:40:47.069Z,98627.13
2018-06-10T17:43:21.677Z,98622.14
2018-06-10T17:45:56.175Z,98622.39
2018-06-10T17:48:30.665Z,98616.17
2018-06-10T17:51:05.043Z,98609.59
2018-06-10T17:53:39.451Z,98610.58
2018-06-10T17:56:14.105Z,98607.59
2018-06-10T17:58:48.725Z,98607.89
2018-06-10T18:01:23.379Z,98604.35
2018-06-10T18:03:57.854Z,98603.52
2018-06-10T18:06:32.472Z,98604.50
2018-06-10T18:09:08.524Z,98606.53
2018-06-10T18:11:43.152Z,98606.75
2018-06-10T18:14:17.632Z,98601.32
2018-06-10T18:16:52.312Z,98596.38
2018-06-10T18:19:26.873Z,98586.75
2018-06-10T18:22:01.384Z,98582.72
2018-06-10T18:24:35.996Z,98588.33
2018-06-10T18:27:10.676Z,98589.39
2018-06-10T18:29:45.300Z,98590.34
2018-06-10T18:32:19.743Z,98589.44
2018-06-10T18:34:54.213Z,98592.41
2018-06-10T18:37:29.042Z,98603.34
2018-06-10T18:40:03.821Z,98602.34
2018-06-10T18:42:38.416Z,98605.75
2018-06-10T18:45:13.199Z,98611.45
2018-06-10T18:47:47.573Z,98612.73
2018-06-10T18:50:22.421Z,98609.22
2018-06-10T18:52:56.936Z,98615.70
2018-06-10T18:55:31.588Z,98630.02
2018-06-10T18:58:06.184Z,98627.63
2018-06-10T19:00:40.692Z,98631.17
2018-06-10T19:03:15.260Z,98631.56
2018-06-10T19:05:49.720Z,98633.58
2018-06-10T19:08:24.199Z,98641.48
2018-06-10T19:10:58.727Z,98646.88
2018-06-10T19:13:33.361Z,98644.30
2018-06-10T19:16:07.857Z,98651.67
2018-06-10T19:18:42.577Z,98652.25
2018-06-10T19:21:16.984Z,98656.20
2018-06-10T19:23:51.518Z,98652.63
2018-06-10T19:26:25.956Z,98645.91
2018-06-10T19:29:00.430Z,98653.44
2018-06-10T19:31:34.868Z,98655.44
2018-06-10T19:34:09.364Z,98657.82
2018-06-10T19:36:44.279Z,98655.23
2018-06-10T19:39:18.837Z,98658.00
2018-06-10T19:41:53.489Z,98662.16
2018-06-10T19:44:28.069Z,98669.27
2018-06-10T19:47:02.810Z,98668.67
2018-06-10T19:49:37.361Z,98673.78
2018-06-10T19:52:11.763Z,98674.97
2018-06-10T19:54:46.687Z,98682.47
2018-06-10T19:57:21.273Z,98689.33
2018-06-10T19:59:55.647Z,98695.08
2018-06-10T20:02:30.187Z,98691.47
2018-06-10T20:05:05.114Z,98689.92
2018-06-10T20:07:39.677Z,98689.92
2018-06-10T20:10:14.120Z,98687.55
2018-06-10T20:12:48.797Z,98685.95
2018-06-10T20:15:23.353Z,98687.23
2018-06-10T20:17:58.041Z,98688.80
2018-06-10T20:20:32.506Z,98690.38
2018-06-10T20:23:07.224Z,98694.50
2018-06-10T20:25:41.644Z,98701.91
2018-06-10T20:28:16.356Z,98704.09
2018-06-10T20:30:50.873Z,98697.34
2018-06-10T20:33:25.312Z,98700.91
2018-06-10T20:35:59.976Z,98696.38
2018-06-10T20:38:34.881Z,98707.78
2018-06-10T20:41:09.686Z,98706.21
2018-06-10T20:43:44.215Z,98705.20
2018-06-10T20:46:18.782Z,98702.86
2018-06-10T20:48:53.317Z,98714.44
2018-06-10T20:51:28.125Z,98710.23
2018-06-10T20:54:02.684Z,98716.09
2018-06-10T20:56:37.009Z,98709.88
2018-06-10T20:59:17.736Z,98712.30
2018-06-10T21:01:52.708Z,98709.06
2018-06-10T21:04:27.093Z,98718.28
2018-06-10T21:07:01.475Z,98714.69
2018-06-10T21:09:36.070Z,98714.70
2018-06-10T21:12:10.548Z,98699.80
2018-06-10T21:14:45.151Z,98702.28
2018-06-10T21:17:19.785Z,98705.22
2018-06-10T21:19:54.382Z,98708.58
2018-06-10T21:22:28.837Z,98708.17
2018-06-10T21:25:03.453Z,98706.55
2018-06-10T21:27:37.949Z,98706.58
2018-06-10T21:30:12.504Z,98709.73
2018-06-10T21:32:47.012Z,98709.39
2018-06-10T21:35:21.531Z,98716.93
2018-06-10T21:37:56.140Z,98709.27
2018-06-10T21:40:31.060Z,98703.31
2018-06-10T21:43:05.496Z,98701.99
2018-06-10T21:45:39.990Z,98703.31
2018-06-10T21:48:14.692Z,98709.73
2018-06-10T21:50:49.340Z,98705.25
2018-06-10T21:53:23.744Z,98712.29
2018-06-10T21:55:58.461Z,98714.68
2018-06-10T21:58:33.074Z,98712.13
2018-06-10T22:01:07.583Z,98720.41
2018-06-10T22:03:42.259Z,98718.47
2018-06-10T22:06:16.808Z,98721.98
2018-06-10T22:08:51.284Z,98721.98
2018-06-10T22:11:25.916Z,98724.14
2018-06-10T22:14:00.605Z,98727.77
2018-06-10T22:16:35.159Z,98731.58
2018-06-10T22:19:09.832Z,98735.76
2018-06-10T22:21:45.118Z,98733.14
2018-06-10T22:24:19.609Z,98734.76
2018-06-10T22:26:54.203Z,98730.30
2018-06-10T22:29:28.937Z,98741.86
2018-06-10T22:32:03.409Z,98746.33
2018-06-10T22:34:37.852Z,98745.06
2018-06-10T22:37:12.429Z,98751.81
2018-06-10T22:39:46.971Z,98755.42
2018-06-10T22:42:21.350Z,98743.45
2018-06-10T22:44:55.892Z,98743.61
2018-06-10T22:47:30.480Z,98740.80
2018-06-10T22:50:05.102Z,98741.39
2018-06-10T22:52:39.612Z,98747.80
2018-06-10T22:55:14.042Z,98748.03
2018-06-10T22:57:48.516Z,98750.52
2018-06-10T23:00:22.994Z,98751.58
2018-06-10T23:02:57.409Z,98755.81
2018-06-10T23:05:31.999Z,98750.21
2018-06-10T23:08:06.582Z,98745.29
2018-06-10T23:10:41.060Z,98743.37
2018-06-10T23:13:15.789Z,98740.60
2018-06-10T23:15:50.269Z,98739.83
2018-06-10T23:18:24.645Z,98745.58
2018-06-10T23:20:59.212Z,98746.28
2018-06-10T23:23:33.732Z,98740.20
2018-06-10T23:26:08.300Z,98741.82
2018-06-10T23:28:43.194Z,98749.34
2018-06-10T23:31:17.855Z,98742.71
2018-06-10T23:33:52.600Z,98743.45
2018-06-10T23:36:27.039Z,98742.28
2018-06-10T23:39:01.517Z,98754.45
2018-06-10T23:41:36.101Z,98744.82
2018-06-10T23:44:10.565Z,98750.14
2018-06-10T23:46:45.220Z,98746.69
2018-06-10T23:49:19.866Z,98746.70
2018-06-10T23:51:54.361Z,98732.35
2018-06-10T23:54:28.963Z,98739.80
2018-06-10T23:57:03.436Z,98744.42
2018-06-10T23:59:37.948Z,98742.71
